KAXN/AXN METAR and TAF weather

Enter ICAO airport designator
Station Type Date Time Source
KAXN METAR 2021/02/24 17:53 UTC NOAA

KAXN 241753Z AUTO 28008KT 10SM CLR M04/M07 A3011 RMK AO2 SLP217 T10391072 11033 21061 51018


Station Type Date Time Source
KAXN Decoded METAR 2021/02/24 17:53 UTC NOAA

CHANDLER FIELD, MN, United States (KAXN) 45-52N 095-24W 433M
Feb 24, 2021 - 12:53 PM EST / 2021.02.24 1753 UTC
Wind: from the W (280 degrees) at 9 MPH (8 KT):0
Visibility: 10 mile(s):0
Sky conditions: clear
Temperature: 25.0 F (-3.9 C)
Windchill: 15 F (-9 C):1
Dew Point: 19.0 F (-7.2 C)
Relative Humidity: 77%
Pressure (altimeter): 30.11 in. Hg (1019 hPa)
Pressure tendency: 0.05 inches (1.8 hPa) higher than three hours ago
ob: KAXN 241753Z AUTO 28008KT 10SM CLR M04/M07 A3011 RMK AO2 SLP217 T10391072 11033 21061 51018
cycle: 18

Station Type Date Time Source
KAXN TAF 2021/02/24 18:48 UTC NOAA

TAF KAXN 241740Z 2418/2518 30008KT P6SM SKC
FM242200 29007KT P6SM BKN035
FM250100 27008KT P6SM SCT015 BKN025
FM251000 25008KT P6SM SKC

Example: see airport list